sensor_id;sensor_type;location;lat;lon;timestamp;P1;durP1;ratioP1;P2;durP2;ratioP2
14686;SDS011;7431;49.440;11.084;2023-07-22T00:00:01;2.95;;;2.65;;
14686;SDS011;7431;49.440;11.084;2023-07-22T00:02:31;3.03;;;2.58;;
14686;SDS011;7431;49.440;11.084;2023-07-22T00:04:56;3.58;;;2.72;;
14686;SDS011;7431;49.440;11.084;2023-07-22T00:07:22;3.08;;;2.38;;
14686;SDS011;7431;49.440;11.084;2023-07-22T00:09:48;3.25;;;2.80;;
14686;SDS011;7431;49.440;11.084;2023-07-22T00:12:15;2.70;;;2.50;;
14686;SDS011;7431;49.440;11.084;2023-07-22T00:14:41;4.65;;;3.17;;
14686;SDS011;7431;49.440;11.084;2023-07-22T00:17:07;4.28;;;3.00;;
14686;SDS011;7431;49.440;11.084;2023-07-22T00:19:33;4.00;;;2.80;;
14686;SDS011;7431;49.440;11.084;2023-07-22T00:21:59;3.53;;;2.70;;
14686;SDS011;7431;49.440;11.084;2023-07-22T00:24:26;3.88;;;2.70;;
14686;SDS011;7431;49.440;11.084;2023-07-22T00:26:52;2.92;;;2.63;;
14686;SDS011;7431;49.440;11.084;2023-07-22T00:29:18;2.75;;;2.45;;
14686;SDS011;7431;49.440;11.084;2023-07-22T00:31:44;4.13;;;2.72;;
14686;SDS011;7431;49.440;11.084;2023-07-22T00:34:10;3.60;;;2.97;;
14686;SDS011;7431;49.440;11.084;2023-07-22T00:36:36;2.63;;;2.28;;
14686;SDS011;7431;49.440;11.084;2023-07-22T00:39:02;3.20;;;2.90;;
14686;SDS011;7431;49.440;11.084;2023-07-22T00:41:30;3.90;;;2.90;;
14686;SDS011;7431;49.440;11.084;2023-07-22T00:43:56;2.83;;;2.63;;
14686;SDS011;7431;49.440;11.084;2023-07-22T00:46:22;3.35;;;3.05;;
14686;SDS011;7431;49.440;11.084;2023-07-22T00:48:48;3.08;;;2.60;;
14686;SDS011;7431;49.440;11.084;2023-07-22T00:51:15;3.53;;;2.75;;
14686;SDS011;7431;49.440;11.084;2023-07-22T00:53:41;5.03;;;3.10;;
14686;SDS011;7431;49.440;11.084;2023-07-22T00:56:07;3.25;;;2.80;;
14686;SDS011;7431;49.440;11.084;2023-07-22T00:58:33;4.28;;;2.83;;
14686;SDS011;7431;49.440;11.084;2023-07-22T01:00:59;3.08;;;2.78;;
14686;SDS011;7431;49.440;11.084;2023-07-22T01:03:25;3.63;;;2.70;;
14686;SDS011;7431;49.440;11.084;2023-07-22T01:05:53;3.38;;;3.05;;
14686;SDS011;7431;49.440;11.084;2023-07-22T01:08:19;4.13;;;2.78;;
14686;SDS011;7431;49.440;11.084;2023-07-22T01:10:46;4.50;;;3.08;;
14686;SDS011;7431;49.440;11.084;2023-07-22T01:13:13;2.90;;;2.60;;
14686;SDS011;7431;49.440;11.084;2023-07-22T01:15:39;4.00;;;2.90;;
14686;SDS011;7431;49.440;11.084;2023-07-22T01:18:05;3.70;;;2.78;;
14686;SDS011;7431;49.440;11.084;2023-07-22T01:20:32;4.43;;;2.47;;
14686;SDS011;7431;49.440;11.084;2023-07-22T01:22:58;3.50;;;3.00;;
14686;SDS011;7431;49.440;11.084;2023-07-22T01:25:24;3.20;;;2.90;;
14686;SDS011;7431;49.440;11.084;2023-07-22T01:27:50;2.77;;;2.50;;
14686;SDS011;7431;49.440;11.084;2023-07-22T01:30:17;3.08;;;2.70;;
14686;SDS011;7431;49.440;11.084;2023-07-22T01:32:44;5.93;;;3.15;;
14686;SDS011;7431;49.440;11.084;2023-07-22T01:35:10;2.90;;;2.60;;
14686;SDS011;7431;49.440;11.084;2023-07-22T01:37:36;2.83;;;2.63;;
14686;SDS011;7431;49.440;11.084;2023-07-22T01:40:02;2.80;;;2.53;;
14686;SDS011;7431;49.440;11.084;2023-07-22T01:42:37;4.07;;;3.13;;
14686;SDS011;7431;49.440;11.084;2023-07-22T01:45:03;3.17;;;2.88;;
14686;SDS011;7431;49.440;11.084;2023-07-22T01:47:31;3.17;;;2.75;;
14686;SDS011;7431;49.440;11.084;2023-07-22T01:49:57;2.60;;;2.25;;
14686;SDS011;7431;49.440;11.084;2023-07-22T01:52:23;3.90;;;2.72;;
14686;SDS011;7431;49.440;11.084;2023-07-22T01:54:48;3.53;;;2.60;;
14686;SDS011;7431;49.440;11.084;2023-07-22T01:57:14;2.78;;;2.58;;
14686;SDS011;7431;49.440;11.084;2023-07-22T01:59:40;2.80;;;2.58;;
14686;SDS011;7431;49.440;11.084;2023-07-22T02:02:06;2.60;;;2.40;;
14686;SDS011;7431;49.440;11.084;2023-07-22T02:04:32;3.17;;;2.85;;
14686;SDS011;7431;49.440;11.084;2023-07-22T02:06:58;2.42;;;2.22;;
14686;SDS011;7431;49.440;11.084;2023-07-22T02:09:24;3.05;;;2.63;;
14686;SDS011;7431;49.440;11.084;2023-07-22T02:11:50;3.67;;;2.78;;
14686;SDS011;7431;49.440;11.084;2023-07-22T02:14:16;4.13;;;2.88;;
14686;SDS011;7431;49.440;11.084;2023-07-22T02:16:42;2.88;;;2.63;;
14686;SDS011;7431;49.440;11.084;2023-07-22T02:19:08;2.92;;;2.60;;
14686;SDS011;7431;49.440;11.084;2023-07-22T02:21:34;3.42;;;2.50;;
14686;SDS011;7431;49.440;11.084;2023-07-22T02:24:00;3.22;;;2.92;;
14686;SDS011;7431;49.440;11.084;2023-07-22T02:26:26;3.72;;;2.95;;
14686;SDS011;7431;49.440;11.084;2023-07-22T02:28:52;3.03;;;2.60;;
14686;SDS011;7431;49.440;11.084;2023-07-22T02:31:19;3.30;;;2.97;;
14686;SDS011;7431;49.440;11.084;2023-07-22T02:33:47;4.53;;;3.30;;
14686;SDS011;7431;49.440;11.084;2023-07-22T02:36:13;5.27;;;3.53;;
14686;SDS011;7431;49.440;11.084;2023-07-22T02:38:39;5.43;;;3.60;;
14686;SDS011;7431;49.440;11.084;2023-07-22T02:41:05;3.72;;;2.95;;
14686;SDS011;7431;49.440;11.084;2023-07-22T02:43:33;3.80;;;2.58;;
14686;SDS011;7431;49.440;11.084;2023-07-22T02:46:00;4.57;;;3.28;;
14686;SDS011;7431;49.440;11.084;2023-07-22T02:48:26;3.33;;;3.03;;
14686;SDS011;7431;49.440;11.084;2023-07-22T02:50:52;2.63;;;2.42;;
14686;SDS011;7431;49.440;11.084;2023-07-22T02:53:18;3.50;;;2.87;;
14686;SDS011;7431;49.440;11.084;2023-07-22T02:55:44;4.90;;;2.70;;
14686;SDS011;7431;49.440;11.084;2023-07-22T02:58:11;3.78;;;2.85;;
14686;SDS011;7431;49.440;11.084;2023-07-22T03:00:37;3.30;;;2.87;;
14686;SDS011;7431;49.440;11.084;2023-07-22T03:03:03;2.97;;;2.43;;
14686;SDS011;7431;49.440;11.084;2023-07-22T03:05:30;3.40;;;2.65;;
14686;SDS011;7431;49.440;11.084;2023-07-22T03:07:57;3.17;;;2.77;;
14686;SDS011;7431;49.440;11.084;2023-07-22T03:10:23;3.58;;;2.95;;
14686;SDS011;7431;49.440;11.084;2023-07-22T03:12:54;3.97;;;2.77;;
14686;SDS011;7431;49.440;11.084;2023-07-22T03:15:21;3.35;;;2.58;;
14686;SDS011;7431;49.440;11.084;2023-07-22T03:17:47;3.28;;;2.78;;
14686;SDS011;7431;49.440;11.084;2023-07-22T03:20:14;3.88;;;2.65;;
14686;SDS011;7431;49.440;11.084;2023-07-22T03:22:42;3.55;;;2.80;;
14686;SDS011;7431;49.440;11.084;2023-07-22T03:25:11;3.42;;;2.65;;
14686;SDS011;7431;49.440;11.084;2023-07-22T03:27:38;3.13;;;2.83;;
14686;SDS011;7431;49.440;11.084;2023-07-22T03:30:04;3.00;;;2.75;;
14686;SDS011;7431;49.440;11.084;2023-07-22T03:32:35;3.25;;;2.67;;
14686;SDS011;7431;49.440;11.084;2023-07-22T03:35:01;3.20;;;2.90;;
14686;SDS011;7431;49.440;11.084;2023-07-22T03:37:28;3.10;;;2.80;;
14686;SDS011;7431;49.440;11.084;2023-07-22T03:39:54;3.90;;;2.83;;
14686;SDS011;7431;49.440;11.084;2023-07-22T03:42:20;3.80;;;2.70;;
14686;SDS011;7431;49.440;11.084;2023-07-22T03:44:46;3.80;;;3.07;;
14686;SDS011;7431;49.440;11.084;2023-07-22T03:47:12;3.25;;;2.95;;
14686;SDS011;7431;49.440;11.084;2023-07-22T03:49:38;3.10;;;2.83;;
14686;SDS011;7431;49.440;11.084;2023-07-22T03:52:04;3.90;;;3.03;;
14686;SDS011;7431;49.440;11.084;2023-07-22T03:54:30;2.90;;;2.60;;
14686;SDS011;7431;49.440;11.084;2023-07-22T03:56:56;3.60;;;3.10;;
14686;SDS011;7431;49.440;11.084;2023-07-22T03:59:22;3.30;;;2.88;;
14686;SDS011;7431;49.440;11.084;2023-07-22T04:01:48;3.75;;;2.67;;
14686;SDS011;7431;49.440;11.084;2023-07-22T04:04:14;3.90;;;3.30;;
14686;SDS011;7431;49.440;11.084;2023-07-22T04:06:40;3.38;;;2.85;;
14686;SDS011;7431;49.440;11.084;2023-07-22T04:09:06;3.83;;;3.10;;
14686;SDS011;7431;49.440;11.084;2023-07-22T04:11:32;4.10;;;3.10;;
14686;SDS011;7431;49.440;11.084;2023-07-22T04:13:57;3.15;;;2.88;;
14686;SDS011;7431;49.440;11.084;2023-07-22T04:16:23;6.30;;;3.03;;
14686;SDS011;7431;49.440;11.084;2023-07-22T04:18:50;3.10;;;2.80;;
14686;SDS011;7431;49.440;11.084;2023-07-22T04:21:16;4.67;;;3.07;;
14686;SDS011;7431;49.440;11.084;2023-07-22T04:23:42;4.47;;;3.30;;
14686;SDS011;7431;49.440;11.084;2023-07-22T04:26:08;4.33;;;2.90;;
14686;SDS011;7431;49.440;11.084;2023-07-22T04:28:34;2.77;;;2.53;;
14686;SDS011;7431;49.440;11.084;2023-07-22T04:31:00;4.70;;;2.73;;
14686;SDS011;7431;49.440;11.084;2023-07-22T04:33:27;3.45;;;2.55;;
14686;SDS011;7431;49.440;11.084;2023-07-22T04:35:54;2.67;;;2.45;;
14686;SDS011;7431;49.440;11.084;2023-07-22T04:38:20;3.30;;;2.88;;
14686;SDS011;7431;49.440;11.084;2023-07-22T04:40:46;3.67;;;2.47;;
14686;SDS011;7431;49.440;11.084;2023-07-22T04:43:12;4.78;;;2.90;;
14686;SDS011;7431;49.440;11.084;2023-07-22T04:45:38;3.03;;;2.33;;
14686;SDS011;7431;49.440;11.084;2023-07-22T04:48:07;3.23;;;2.93;;
14686;SDS011;7431;49.440;11.084;2023-07-22T04:50:33;3.20;;;2.80;;
14686;SDS011;7431;49.440;11.084;2023-07-22T04:52:59;3.20;;;2.60;;
14686;SDS011;7431;49.440;11.084;2023-07-22T04:55:25;5.07;;;2.80;;
14686;SDS011;7431;49.440;11.084;2023-07-22T04:57:54;3.75;;;2.70;;
14686;SDS011;7431;49.440;11.084;2023-07-22T05:00:20;3.50;;;2.40;;
14686;SDS011;7431;49.440;11.084;2023-07-22T05:02:47;3.70;;;2.53;;
14686;SDS011;7431;49.440;11.084;2023-07-22T05:05:13;2.92;;;2.60;;
14686;SDS011;7431;49.440;11.084;2023-07-22T05:07:39;3.28;;;2.70;;
14686;SDS011;7431;49.440;11.084;2023-07-22T05:10:06;3.30;;;2.53;;
14686;SDS011;7431;49.440;11.084;2023-07-22T05:12:36;3.05;;;2.53;;
14686;SDS011;7431;49.440;11.084;2023-07-22T05:15:02;3.92;;;2.70;;
14686;SDS011;7431;49.440;11.084;2023-07-22T05:17:28;2.70;;;2.38;;
14686;SDS011;7431;49.440;11.084;2023-07-22T05:19:56;4.15;;;2.58;;
14686;SDS011;7431;49.440;11.084;2023-07-22T05:22:22;3.92;;;2.75;;
14686;SDS011;7431;49.440;11.084;2023-07-22T05:24:48;2.45;;;2.25;;
14686;SDS011;7431;49.440;11.084;2023-07-22T05:27:14;3.30;;;2.97;;
14686;SDS011;7431;49.440;11.084;2023-07-22T05:29:40;3.25;;;2.95;;
14686;SDS011;7431;49.440;11.084;2023-07-22T05:32:06;2.78;;;2.55;;
14686;SDS011;7431;49.440;11.084;2023-07-22T05:34:32;2.95;;;2.67;;
14686;SDS011;7431;49.440;11.084;2023-07-22T05:36:58;3.90;;;3.10;;
14686;SDS011;7431;49.440;11.084;2023-07-22T05:39:24;4.25;;;3.13;;
14686;SDS011;7431;49.440;11.084;2023-07-22T05:41:51;3.38;;;2.90;;
14686;SDS011;7431;49.440;11.084;2023-07-22T05:44:17;4.38;;;2.70;;
14686;SDS011;7431;49.440;11.084;2023-07-22T05:46:43;2.90;;;2.60;;
14686;SDS011;7431;49.440;11.084;2023-07-22T05:49:09;2.60;;;2.40;;
14686;SDS011;7431;49.440;11.084;2023-07-22T05:51:39;3.17;;;2.88;;
14686;SDS011;7431;49.440;11.084;2023-07-22T05:54:05;3.17;;;2.60;;
14686;SDS011;7431;49.440;11.084;2023-07-22T05:56:31;2.97;;;2.28;;
14686;SDS011;7431;49.440;11.084;2023-07-22T05:58:57;2.97;;;2.67;;
14686;SDS011;7431;49.440;11.084;2023-07-22T06:01:23;3.22;;;2.50;;
14686;SDS011;7431;49.440;11.084;2023-07-22T06:03:52;2.95;;;2.35;;
14686;SDS011;7431;49.440;11.084;2023-07-22T06:06:18;4.53;;;2.95;;
14686;SDS011;7431;49.440;11.084;2023-07-22T06:08:45;3.05;;;2.35;;
14686;SDS011;7431;49.440;11.084;2023-07-22T06:11:10;2.97;;;2.63;;
14686;SDS011;7431;49.440;11.084;2023-07-22T06:13:36;2.97;;;2.65;;
14686;SDS011;7431;49.440;11.084;2023-07-22T06:16:02;5.07;;;2.75;;
14686;SDS011;7431;49.440;11.084;2023-07-22T06:18:28;2.85;;;2.53;;
14686;SDS011;7431;49.440;11.084;2023-07-22T06:20:54;3.97;;;2.53;;
14686;SDS011;7431;49.440;11.084;2023-07-22T06:23:20;4.22;;;2.70;;
14686;SDS011;7431;49.440;11.084;2023-07-22T06:25:46;4.80;;;2.88;;
14686;SDS011;7431;49.440;11.084;2023-07-22T06:28:12;6.05;;;3.25;;
14686;SDS011;7431;49.440;11.084;2023-07-22T06:30:38;3.88;;;3.05;;
14686;SDS011;7431;49.440;11.084;2023-07-22T06:33:04;3.85;;;3.25;;
14686;SDS011;7431;49.440;11.084;2023-07-22T06:35:30;4.13;;;3.00;;
14686;SDS011;7431;49.440;11.084;2023-07-22T06:37:56;3.05;;;2.85;;
14686;SDS011;7431;49.440;11.084;2023-07-22T06:40:24;4.03;;;3.08;;
14686;SDS011;7431;49.440;11.084;2023-07-22T06:42:50;3.65;;;3.15;;
14686;SDS011;7431;49.440;11.084;2023-07-22T06:45:16;3.40;;;3.10;;
14686;SDS011;7431;49.440;11.084;2023-07-22T06:47:42;3.78;;;3.35;;
14686;SDS011;7431;49.440;11.084;2023-07-22T06:50:09;4.68;;;2.90;;
14686;SDS011;7431;49.440;11.084;2023-07-22T06:52:35;4.05;;;3.15;;
14686;SDS011;7431;49.440;11.084;2023-07-22T06:55:01;3.67;;;3.25;;
14686;SDS011;7431;49.440;11.084;2023-07-22T06:57:27;3.60;;;3.10;;
14686;SDS011;7431;49.440;11.084;2023-07-22T06:59:53;6.13;;;3.38;;
14686;SDS011;7431;49.440;11.084;2023-07-22T07:02:19;4.30;;;2.92;;
14686;SDS011;7431;49.440;11.084;2023-07-22T07:04:46;3.65;;;2.47;;
14686;SDS011;7431;49.440;11.084;2023-07-22T07:07:12;5.10;;;2.80;;
14686;SDS011;7431;49.440;11.084;2023-07-22T07:09:38;2.70;;;2.50;;
14686;SDS011;7431;49.440;11.084;2023-07-22T07:12:04;3.20;;;2.90;;
14686;SDS011;7431;49.440;11.084;2023-07-22T07:14:32;3.83;;;3.08;;
14686;SDS011;7431;49.440;11.084;2023-07-22T07:16:58;4.45;;;3.30;;
14686;SDS011;7431;49.440;11.084;2023-07-22T07:19:24;3.80;;;2.85;;
14686;SDS011;7431;49.440;11.084;2023-07-22T07:21:50;4.18;;;2.90;;
14686;SDS011;7431;49.440;11.084;2023-07-22T07:24:16;3.05;;;2.75;;
14686;SDS011;7431;49.440;11.084;2023-07-22T07:26:42;3.58;;;2.65;;
14686;SDS011;7431;49.440;11.084;2023-07-22T07:29:08;2.78;;;2.50;;
14686;SDS011;7431;49.440;11.084;2023-07-22T07:31:34;5.68;;;3.03;;
14686;SDS011;7431;49.440;11.084;2023-07-22T07:34:00;4.75;;;2.97;;
14686;SDS011;7431;49.440;11.084;2023-07-22T07:36:26;4.25;;;2.80;;
14686;SDS011;7431;49.440;11.084;2023-07-22T07:38:52;3.10;;;2.80;;
14686;SDS011;7431;49.440;11.084;2023-07-22T07:41:18;6.00;;;3.15;;
14686;SDS011;7431;49.440;11.084;2023-07-22T07:43:44;3.35;;;3.03;;
14686;SDS011;7431;49.440;11.084;2023-07-22T07:46:31;4.07;;;2.95;;
14686;SDS011;7431;49.440;11.084;2023-07-22T07:48:57;4.18;;;3.40;;
14686;SDS011;7431;49.440;11.084;2023-07-22T07:51:24;4.47;;;2.97;;
14686;SDS011;7431;49.440;11.084;2023-07-22T07:53:54;3.78;;;3.33;;
14686;SDS011;7431;49.440;11.084;2023-07-22T07:56:21;4.55;;;3.45;;
14686;SDS011;7431;49.440;11.084;2023-07-22T07:58:47;5.55;;;4.10;;
14686;SDS011;7431;49.440;11.084;2023-07-22T08:01:13;4.63;;;3.60;;
14686;SDS011;7431;49.440;11.084;2023-07-22T08:03:40;4.07;;;3.35;;
14686;SDS011;7431;49.440;11.084;2023-07-22T08:06:09;4.38;;;3.00;;
14686;SDS011;7431;49.440;11.084;2023-07-22T08:08:36;4.53;;;3.40;;
14686;SDS011;7431;49.440;11.084;2023-07-22T08:13:28;3.88;;;3.08;;
14686;SDS011;7431;49.440;11.084;2023-07-22T08:15:56;3.65;;;3.22;;
14686;SDS011;7431;49.440;11.084;2023-07-22T08:18:22;4.25;;;3.17;;
14686;SDS011;7431;49.440;11.084;2023-07-22T08:20:49;4.55;;;3.17;;
14686;SDS011;7431;49.440;11.084;2023-07-22T08:23:15;3.67;;;2.80;;
14686;SDS011;7431;49.440;11.084;2023-07-22T08:25:41;3.13;;;2.83;;
14686;SDS011;7431;49.440;11.084;2023-07-22T08:28:07;3.63;;;3.30;;
14686;SDS011;7431;49.440;11.084;2023-07-22T08:30:33;4.18;;;3.10;;
14686;SDS011;7431;49.440;11.084;2023-07-22T08:32:59;4.63;;;3.13;;
14686;SDS011;7431;49.440;11.084;2023-07-22T08:35:25;4.30;;;3.13;;
14686;SDS011;7431;49.440;11.084;2023-07-22T08:37:51;4.00;;;3.30;;
14686;SDS011;7431;49.440;11.084;2023-07-22T08:40:18;3.55;;;2.97;;
14686;SDS011;7431;49.440;11.084;2023-07-22T08:42:44;3.15;;;2.85;;
14686;SDS011;7431;49.440;11.084;2023-07-22T08:45:11;3.60;;;3.00;;
14686;SDS011;7431;49.440;11.084;2023-07-22T08:47:39;4.13;;;2.78;;
14686;SDS011;7431;49.440;11.084;2023-07-22T08:50:10;4.05;;;3.15;;
14686;SDS011;7431;49.440;11.084;2023-07-22T08:52:36;3.72;;;2.88;;
14686;SDS011;7431;49.440;11.084;2023-07-22T08:55:03;4.03;;;3.63;;
14686;SDS011;7431;49.440;11.084;2023-07-22T08:57:29;4.13;;;3.25;;
14686;SDS011;7431;49.440;11.084;2023-07-22T08:59:56;3.83;;;3.25;;
14686;SDS011;7431;49.440;11.084;2023-07-22T09:02:23;5.25;;;3.05;;
14686;SDS011;7431;49.440;11.084;2023-07-22T09:04:50;3.15;;;2.63;;
14686;SDS011;7431;49.440;11.084;2023-07-22T09:07:16;3.40;;;3.08;;
14686;SDS011;7431;49.440;11.084;2023-07-22T09:09:42;2.78;;;2.55;;
14686;SDS011;7431;49.440;11.084;2023-07-22T09:12:10;3.10;;;2.80;;
14686;SDS011;7431;49.440;11.084;2023-07-22T09:14:36;3.28;;;2.65;;
14686;SDS011;7431;49.440;11.084;2023-07-22T09:17:04;3.33;;;2.50;;
14686;SDS011;7431;49.440;11.084;2023-07-22T09:19:31;3.47;;;3.17;;
14686;SDS011;7431;49.440;11.084;2023-07-22T09:21:57;3.15;;;2.85;;
14686;SDS011;7431;49.440;11.084;2023-07-22T09:24:24;5.03;;;3.03;;
14686;SDS011;7431;49.440;11.084;2023-07-22T09:26:51;4.18;;;3.00;;
14686;SDS011;7431;49.440;11.084;2023-07-22T09:29:17;3.05;;;2.75;;
14686;SDS011;7431;49.440;11.084;2023-07-22T09:31:50;4.50;;;2.58;;
14686;SDS011;7431;49.440;11.084;2023-07-22T09:34:16;4.78;;;2.83;;
14686;SDS011;7431;49.440;11.084;2023-07-22T09:36:50;3.50;;;2.60;;
14686;SDS011;7431;49.440;11.084;2023-07-22T09:39:17;5.50;;;2.75;;
14686;SDS011;7431;49.440;11.084;2023-07-22T09:41:43;3.08;;;2.50;;
14686;SDS011;7431;49.440;11.084;2023-07-22T09:44:09;3.20;;;2.38;;
14686;SDS011;7431;49.440;11.084;2023-07-22T09:46:37;2.67;;;2.47;;
14686;SDS011;7431;49.440;11.084;2023-07-22T09:49:07;4.20;;;3.50;;
14686;SDS011;7431;49.440;11.084;2023-07-22T09:51:37;2.50;;;2.22;;
14686;SDS011;7431;49.440;11.084;2023-07-22T09:54:04;2.67;;;2.47;;
14686;SDS011;7431;49.440;11.084;2023-07-22T09:56:30;2.10;;;1.90;;
14686;SDS011;7431;49.440;11.084;2023-07-22T09:58:58;2.70;;;2.40;;
14686;SDS011;7431;49.440;11.084;2023-07-22T10:01:24;2.30;;;2.13;;
14686;SDS011;7431;49.440;11.084;2023-07-22T10:03:54;3.00;;;2.42;;
14686;SDS011;7431;49.440;11.084;2023-07-22T10:06:21;4.13;;;2.55;;
14686;SDS011;7431;49.440;11.084;2023-07-22T10:08:49;2.47;;;2.25;;
14686;SDS011;7431;49.440;11.084;2023-07-22T10:11:15;4.47;;;2.67;;
14686;SDS011;7431;49.440;11.084;2023-07-22T10:13:41;2.92;;;2.65;;
14686;SDS011;7431;49.440;11.084;2023-07-22T10:16:07;2.95;;;2.50;;
14686;SDS011;7431;49.440;11.084;2023-07-22T10:18:33;2.50;;;2.30;;
14686;SDS011;7431;49.440;11.084;2023-07-22T10:20:59;2.60;;;2.40;;
14686;SDS011;7431;49.440;11.084;2023-07-22T10:23:26;2.80;;;2.60;;
14686;SDS011;7431;49.440;11.084;2023-07-22T10:25:52;2.53;;;2.33;;
14686;SDS011;7431;49.440;11.084;2023-07-22T10:28:19;2.88;;;2.40;;
14686;SDS011;7431;49.440;11.084;2023-07-22T10:30:46;2.70;;;2.50;;
14686;SDS011;7431;49.440;11.084;2023-07-22T10:33:12;2.22;;;1.85;;
14686;SDS011;7431;49.440;11.084;2023-07-22T10:35:41;3.03;;;2.42;;
14686;SDS011;7431;49.440;11.084;2023-07-22T10:40:47;2.60;;;2.40;;
14686;SDS011;7431;49.440;11.084;2023-07-22T10:43:15;2.15;;;1.95;;
14686;SDS011;7431;49.440;11.084;2023-07-22T10:45:43;4.40;;;2.35;;
14686;SDS011;7431;49.440;11.084;2023-07-22T10:48:14;2.42;;;2.10;;
14686;SDS011;7431;49.440;11.084;2023-07-22T10:53:08;2.45;;;2.10;;
14686;SDS011;7431;49.440;11.084;2023-07-22T10:56:02;2.50;;;2.10;;
14686;SDS011;7431;49.440;11.084;2023-07-22T10:58:20;2.28;;;2.08;;
14686;SDS011;7431;49.440;11.084;2023-07-22T11:00:46;3.25;;;2.20;;
14686;SDS011;7431;49.440;11.084;2023-07-22T11:03:12;4.40;;;2.42;;
14686;SDS011;7431;49.440;11.084;2023-07-22T11:05:49;2.40;;;2.20;;
14686;SDS011;7431;49.440;11.084;2023-07-22T11:08:16;3.40;;;2.25;;
14686;SDS011;7431;49.440;11.084;2023-07-22T11:10:54;3.45;;;2.40;;
14686;SDS011;7431;49.440;11.084;2023-07-22T11:13:26;2.13;;;1.92;;
14686;SDS011;7431;49.440;11.084;2023-07-22T11:15:53;2.30;;;1.88;;
14686;SDS011;7431;49.440;11.084;2023-07-22T11:18:19;2.08;;;1.90;;
14686;SDS011;7431;49.440;11.084;2023-07-22T11:20:44;2.17;;;2.00;;
14686;SDS011;7431;49.440;11.084;2023-07-22T11:23:10;2.25;;;1.63;;
14686;SDS011;7431;49.440;11.084;2023-07-22T11:25:36;2.90;;;1.98;;
14686;SDS011;7431;49.440;11.084;2023-07-22T11:28:02;3.92;;;2.20;;
14686;SDS011;7431;49.440;11.084;2023-07-22T11:30:30;2.65;;;1.95;;
14686;SDS011;7431;49.440;11.084;2023-07-22T11:32:57;2.03;;;1.70;;
14686;SDS011;7431;49.440;11.084;2023-07-22T11:35:23;3.25;;;2.50;;
14686;SDS011;7431;49.440;11.084;2023-07-22T11:37:49;2.20;;;2.00;;
14686;SDS011;7431;49.440;11.084;2023-07-22T11:40:32;3.83;;;1.90;;
14686;SDS011;7431;49.440;11.084;2023-07-22T11:42:58;2.75;;;1.90;;
14686;SDS011;7431;49.440;11.084;2023-07-22T11:45:24;1.88;;;1.77;;
14686;SDS011;7431;49.440;11.084;2023-07-22T11:47:50;5.65;;;3.70;;
14686;SDS011;7431;49.440;11.084;2023-07-22T11:50:16;2.47;;;1.90;;
14686;SDS011;7431;49.440;11.084;2023-07-22T11:52:42;4.20;;;1.88;;
14686;SDS011;7431;49.440;11.084;2023-07-22T11:55:08;2.75;;;1.92;;
14686;SDS011;7431;49.440;11.084;2023-07-22T11:57:34;3.35;;;2.20;;
14686;SDS011;7431;49.440;11.084;2023-07-22T12:00:00;2.83;;;1.98;;
14686;SDS011;7431;49.440;11.084;2023-07-22T12:02:26;1.90;;;1.67;;
14686;SDS011;7431;49.440;11.084;2023-07-22T12:05:05;2.78;;;2.20;;
14686;SDS011;7431;49.440;11.084;2023-07-22T12:07:32;2.70;;;2.17;;
14686;SDS011;7431;49.440;11.084;2023-07-22T12:09:59;2.63;;;2.30;;
14686;SDS011;7431;49.440;11.084;2023-07-22T12:12:32;3.42;;;2.55;;
14686;SDS011;7431;49.440;11.084;2023-07-22T12:15:08;2.30;;;2.00;;
14686;SDS011;7431;49.440;11.084;2023-07-22T12:20:10;3.22;;;2.00;;
14686;SDS011;7431;49.440;11.084;2023-07-22T12:22:37;2.03;;;1.83;;
14686;SDS011;7431;49.440;11.084;2023-07-22T12:25:03;2.38;;;2.17;;
14686;SDS011;7431;49.440;11.084;2023-07-22T12:27:29;2.60;;;2.22;;
14686;SDS011;7431;49.440;11.084;2023-07-22T12:29:55;1.92;;;1.75;;
14686;SDS011;7431;49.440;11.084;2023-07-22T12:32:20;2.20;;;2.00;;
14686;SDS011;7431;49.440;11.084;2023-07-22T12:34:46;2.28;;;1.83;;
14686;SDS011;7431;49.440;11.084;2023-07-22T12:37:12;1.95;;;1.65;;
14686;SDS011;7431;49.440;11.084;2023-07-22T12:39:38;1.75;;;1.63;;
14686;SDS011;7431;49.440;11.084;2023-07-22T12:42:04;2.47;;;1.80;;
14686;SDS011;7431;49.440;11.084;2023-07-22T12:44:31;2.33;;;2.08;;
14686;SDS011;7431;49.440;11.084;2023-07-22T12:46:57;2.00;;;1.80;;
14686;SDS011;7431;49.440;11.084;2023-07-22T12:49:22;2.72;;;1.88;;
14686;SDS011;7431;49.440;11.084;2023-07-22T12:51:48;3.00;;;2.30;;
14686;SDS011;7431;49.440;11.084;2023-07-22T12:54:14;3.83;;;2.50;;
14686;SDS011;7431;49.440;11.084;2023-07-22T12:56:40;2.72;;;2.05;;
14686;SDS011;7431;49.440;11.084;2023-07-22T12:59:08;2.22;;;2.03;;
14686;SDS011;7431;49.440;11.084;2023-07-22T13:01:34;2.25;;;1.92;;
14686;SDS011;7431;49.440;11.084;2023-07-22T13:04:03;2.67;;;2.13;;
14686;SDS011;7431;49.440;11.084;2023-07-22T13:06:30;2.65;;;1.92;;
14686;SDS011;7431;49.440;11.084;2023-07-22T13:08:56;2.25;;;2.05;;
14686;SDS011;7431;49.440;11.084;2023-07-22T13:11:22;2.60;;;2.25;;
14686;SDS011;7431;49.440;11.084;2023-07-22T13:13:48;4.78;;;2.00;;
14686;SDS011;7431;49.440;11.084;2023-07-22T13:16:14;2.28;;;2.00;;
14686;SDS011;7431;49.440;11.084;2023-07-22T13:18:40;2.63;;;2.05;;
14686;SDS011;7431;49.440;11.084;2023-07-22T13:21:06;4.13;;;1.85;;
14686;SDS011;7431;49.440;11.084;2023-07-22T13:23:33;4.35;;;1.75;;
14686;SDS011;7431;49.440;11.084;2023-07-22T13:25:59;3.03;;;2.25;;
14686;SDS011;7431;49.440;11.084;2023-07-22T13:28:24;2.97;;;2.13;;
14686;SDS011;7431;49.440;11.084;2023-07-22T13:30:53;2.53;;;1.60;;
14686;SDS011;7431;49.440;11.084;2023-07-22T13:33:19;2.42;;;2.22;;
14686;SDS011;7431;49.440;11.084;2023-07-22T13:35:45;2.70;;;2.50;;
14686;SDS011;7431;49.440;11.084;2023-07-22T13:38:11;2.45;;;2.25;;
14686;SDS011;7431;49.440;11.084;2023-07-22T13:40:37;2.67;;;2.42;;
14686;SDS011;7431;49.440;11.084;2023-07-22T13:43:03;4.45;;;1.98;;
14686;SDS011;7431;49.440;11.084;2023-07-22T13:45:32;1.90;;;1.67;;
14686;SDS011;7431;49.440;11.084;2023-07-22T13:47:58;3.08;;;2.08;;
14686;SDS011;7431;49.440;11.084;2023-07-22T13:50:24;3.17;;;2.47;;
14686;SDS011;7431;49.440;11.084;2023-07-22T13:52:50;2.55;;;2.28;;
14686;SDS011;7431;49.440;11.084;2023-07-22T13:55:16;3.22;;;2.38;;
14686;SDS011;7431;49.440;11.084;2023-07-22T13:57:42;3.00;;;2.53;;
14686;SDS011;7431;49.440;11.084;2023-07-22T14:00:08;4.28;;;2.60;;
14686;SDS011;7431;49.440;11.084;2023-07-22T14:02:35;2.25;;;1.80;;
14686;SDS011;7431;49.440;11.084;2023-07-22T14:05:01;4.72;;;2.20;;
14686;SDS011;7431;49.440;11.084;2023-07-22T14:07:27;3.30;;;2.03;;
14686;SDS011;7431;49.440;11.084;2023-07-22T14:09:53;3.08;;;2.17;;
14686;SDS011;7431;49.440;11.084;2023-07-22T14:12:20;3.25;;;2.33;;
14686;SDS011;7431;49.440;11.084;2023-07-22T14:14:46;2.20;;;2.00;;
14686;SDS011;7431;49.440;11.084;2023-07-22T14:17:12;3.13;;;2.80;;
14686;SDS011;7431;49.440;11.084;2023-07-22T14:19:38;5.18;;;2.20;;
14686;SDS011;7431;49.440;11.084;2023-07-22T14:22:04;2.13;;;1.92;;
14686;SDS011;7431;49.440;11.084;2023-07-22T14:24:30;3.05;;;2.28;;
14686;SDS011;7431;49.440;11.084;2023-07-22T14:26:56;7.05;;;2.20;;
14686;SDS011;7431;49.440;11.084;2023-07-22T14:29:22;2.85;;;2.47;;
14686;SDS011;7431;49.440;11.084;2023-07-22T14:31:50;3.03;;;2.22;;
14686;SDS011;7431;49.440;11.084;2023-07-22T14:34:15;3.40;;;2.20;;
14686;SDS011;7431;49.440;11.084;2023-07-22T14:36:41;2.30;;;1.90;;
14686;SDS011;7431;49.440;11.084;2023-07-22T14:39:08;2.60;;;2.40;;
14686;SDS011;7431;49.440;11.084;2023-07-22T14:41:34;2.53;;;2.17;;
14686;SDS011;7431;49.440;11.084;2023-07-22T14:44:00;1.92;;;1.83;;
14686;SDS011;7431;49.440;11.084;2023-07-22T14:46:26;1.85;;;1.75;;
14686;SDS011;7431;49.440;11.084;2023-07-22T14:48:52;2.78;;;2.20;;
14686;SDS011;7431;49.440;11.084;2023-07-22T14:51:18;2.42;;;2.05;;
14686;SDS011;7431;49.440;11.084;2023-07-22T14:53:44;3.83;;;1.63;;